Time;durP1;ratioP1;P1;durP2;ratioP2;P2;SDS_P1;SDS_P2;PMS_P1;PMS_P2;Temp;Humidity;BMP_temperature;BMP_pressure;BME280_temperature;BME280_humidity;BME280_pressure;Samples;Min_cycle;Max_cycle;Signal;HPM_P1;HPM_P2
2023/07/08 00:00:07;;;;;;;7.00;3.60;;;25.20;66.90;;;;;;5092021;28;20059;-71
2023/07/08 00:02:33;;;;;;;6.05;3.50;;;25.10;66.90;;;;;;5093307;28;20028;-71
2023/07/08 00:04:58;;;;;;;6.10;3.83;;;25.10;66.90;;;;;;5093250;28;20115;-71
2023/07/08 00:07:24;;;;;;;8.07;3.95;;;25.10;67.20;;;;;;5093325;28;20027;-72
2023/07/08 00:09:49;;;;;;;5.63;3.78;;;25.10;67.20;;;;;;5092926;28;20020;-71
2023/07/08 00:12:15;;;;;;;7.93;3.80;;;25.10;67.10;;;;;;5093031;28;20028;-72
2023/07/08 00:14:40;;;;;;;6.20;4.00;;;25.10;67.20;;;;;;5093068;28;20049;-71
2023/07/08 00:17:15;;;;;;;5.88;4.13;;;25.10;67.30;;;;;;5091902;28;20115;-71
2023/07/08 00:19:40;;;;;;;4.75;3.30;;;25.00;67.40;;;;;;5093100;28;20031;-72
2023/07/08 00:22:16;;;;;;;6.22;3.70;;;25.00;67.40;;;;;;5092821;28;20028;-71
2023/07/08 00:24:43;;;;;;;6.00;3.42;;;25.00;67.40;;;;;;5092728;28;20020;-72
2023/07/08 00:27:12;;;;;;;4.75;3.40;;;24.90;67.50;;;;;;5091858;28;20020;-71
2023/07/08 00:29:38;;;;;;;6.22;3.95;;;24.90;67.80;;;;;;5093275;28;20030;-71
2023/07/08 00:32:12;;;;;;;4.57;3.72;;;24.90;67.80;;;;;;5097079;28;20095;-71
2023/07/08 00:34:38;;;;;;;5.53;3.53;;;24.90;67.90;;;;;;5095662;28;20429;-72
2023/07/08 00:37:05;;;;;;;9.13;4.10;;;24.80;67.90;;;;;;5096918;28;20099;-71
2023/07/08 00:39:33;;;;;;;6.60;3.65;;;24.80;68.00;;;;;;5096702;28;20020;-72
2023/07/08 00:42:01;;;;;;;6.20;3.83;;;24.80;68.00;;;;;;5096970;28;20469;-72
2023/07/08 00:44:27;;;;;;;5.40;3.60;;;24.80;68.10;;;;;;5096890;28;20445;-72
2023/07/08 00:47:07;;;;;;;5.40;3.78;;;24.80;68.20;;;;;;5096819;28;20051;-72
2023/07/08 00:49:39;;;;;;;5.22;4.22;;;24.80;68.30;;;;;;5096709;28;20020;-71
2023/07/08 00:52:18;;;;;;;4.65;3.83;;;24.80;68.40;;;;;;5096295;28;20154;-71
2023/07/08 00:54:43;;;;;;;8.05;4.15;;;24.70;68.60;;;;;;5096661;28;20089;-71
2023/07/08 00:57:10;;;;;;;5.80;3.58;;;24.70;68.40;;;;;;5096555;28;20048;-71
2023/07/08 00:59:58;;;;;;;5.00;3.78;;;24.70;68.50;;;;;;5096631;28;20105;-71
2023/07/08 01:02:26;;;;;;;7.53;3.45;;;24.70;68.70;;;;;;5096159;28;20040;-71
2023/07/08 01:05:05;;;;;;;5.53;3.58;;;24.70;68.70;;;;;;5096426;28;20024;-72
2023/07/08 01:07:32;;;;;;;6.60;3.67;;;24.60;68.90;;;;;;5096047;28;20032;-72
2023/07/08 01:10:12;;;;;;;10.27;4.28;;;24.60;68.90;;;;;;5096280;28;20354;-72
2023/07/08 01:12:45;;;;;;;7.28;3.85;;;24.60;69.10;;;;;;5096295;28;20020;-72
2023/07/08 01:15:12;;;;;;;6.38;3.50;;;24.60;69.20;;;;;;5096180;28;20028;-71
2023/07/08 01:17:39;;;;;;;6.68;3.85;;;24.50;69.30;;;;;;5096370;28;20024;-71
2023/07/08 01:20:06;;;;;;;8.90;3.92;;;24.50;69.40;;;;;;5095988;28;20081;-71
2023/07/08 01:22:36;;;;;;;5.70;3.83;;;24.50;69.50;;;;;;5095540;28;20024;-71
2023/07/08 01:25:05;;;;;;;5.88;3.75;;;24.50;69.70;;;;;;5096163;28;20481;-72
2023/07/08 01:27:34;;;;;;;5.40;3.80;;;24.50;69.80;;;;;;5096061;28;20038;-71
2023/07/08 01:30:01;;;;;;;7.22;3.90;;;24.50;69.90;;;;;;5095998;28;20096;-72
2023/07/08 01:32:26;;;;;;;8.20;4.15;;;24.50;70.00;;;;;;5094625;28;20477;-71
2023/07/08 01:35:01;;;;;;;6.70;3.47;;;24.40;70.00;;;;;;5096284;28;20024;-71
2023/07/08 01:37:35;;;;;;;4.88;3.60;;;24.40;70.10;;;;;;5095485;28;20034;-71
2023/07/08 01:40:15;;;;;;;4.85;4.00;;;24.40;70.20;;;;;;5094382;28;20020;-71
2023/07/08 01:42:41;;;;;;;5.60;3.72;;;24.40;70.40;;;;;;5095261;28;20023;-71
2023/07/08 01:45:15;;;;;;;6.00;4.28;;;24.40;70.40;;;;;;5095607;28;20120;-71
2023/07/08 01:47:43;;;;;;;4.43;3.78;;;24.40;70.50;;;;;;5095837;28;20028;-72
2023/07/08 01:50:11;;;;;;;7.13;4.47;;;24.30;70.70;;;;;;5095246;28;20461;-71
2023/07/08 01:52:37;;;;;;;5.88;3.72;;;24.30;70.80;;;;;;5095299;28;20058;-71
2023/07/08 01:55:03;;;;;;;6.80;3.97;;;24.30;70.90;;;;;;5095500;28;20028;-71
2023/07/08 01:57:29;;;;;;;4.90;3.45;;;24.30;71.40;;;;;;5095312;28;20028;-72
2023/07/08 01:59:54;;;;;;;4.53;3.35;;;24.30;71.80;;;;;;5095038;28;20024;-72
2023/07/08 02:02:20;;;;;;;5.68;3.60;;;24.30;72.50;;;;;;5095344;28;20169;-72
2023/07/08 02:04:45;;;;;;;5.90;3.80;;;24.20;72.40;;;;;;5093296;28;20012;-72
2023/07/08 02:07:11;;;;;;;4.30;3.33;;;24.20;72.40;;;;;;5095018;28;20111;-72
2023/07/08 02:09:36;;;;;;;6.63;3.63;;;24.20;72.80;;;;;;5095366;28;20024;-73
2023/07/08 02:12:02;;;;;;;6.85;3.45;;;24.20;72.50;;;;;;5095034;28;20145;-72
2023/07/08 02:14:27;;;;;;;5.47;3.55;;;24.10;72.70;;;;;;5095230;28;20042;-72
2023/07/08 02:16:53;;;;;;;6.25;3.75;;;24.20;72.80;;;;;;5094895;28;20024;-72
2023/07/08 02:19:19;;;;;;;5.68;4.07;;;24.10;72.30;;;;;;5094725;28;20103;-72
2023/07/08 02:21:45;;;;;;;9.05;4.00;;;24.10;72.20;;;;;;5094731;28;20024;-72
2023/07/08 02:24:10;;;;;;;5.43;3.38;;;24.10;72.10;;;;;;5095049;28;20073;-72
2023/07/08 02:26:36;;;;;;;6.28;3.88;;;24.10;72.10;;;;;;5094984;28;20047;-72
2023/07/08 02:29:02;;;;;;;6.50;4.32;;;24.10;72.10;;;;;;5094863;28;20035;-71
2023/07/08 02:31:28;;;;;;;4.72;3.63;;;24.10;72.20;;;;;;5094644;28;20016;-71
2023/07/08 02:33:54;;;;;;;8.65;3.95;;;24.00;72.30;;;;;;5094460;28;20211;-71
2023/07/08 02:36:20;;;;;;;6.72;4.10;;;24.00;72.30;;;;;;5094568;28;20068;-71
2023/07/08 02:38:45;;;;;;;4.93;3.97;;;24.00;72.40;;;;;;5094821;28;20024;-72
2023/07/08 02:41:11;;;;;;;5.43;3.97;;;23.90;72.50;;;;;;5094478;28;20024;-71
2023/07/08 02:43:37;;;;;;;5.30;3.58;;;23.90;72.60;;;;;;5094634;28;20149;-71
2023/07/08 02:46:03;;;;;;;6.80;3.72;;;23.90;72.70;;;;;;5093090;28;20042;-72
2023/07/08 02:48:29;;;;;;;4.80;3.40;;;23.90;72.80;;;;;;5094254;28;20098;-72
2023/07/08 02:51:02;;;;;;;8.05;4.05;;;23.80;73.70;;;;;;5094052;28;20021;-72
2023/07/08 02:53:28;;;;;;;6.13;3.67;;;23.90;73.50;;;;;;5093320;28;20047;-71
2023/07/08 02:55:54;;;;;;;11.32;3.60;;;23.80;73.80;;;;;;5094328;28;20419;-71
2023/07/08 02:58:19;;;;;;;4.43;3.33;;;23.80;74.00;;;;;;5094133;28;20477;-72
2023/07/08 03:00:45;;;;;;;6.25;3.47;;;23.80;74.20;;;;;;5094149;28;20465;-71
2023/07/08 03:03:10;;;;;;;6.20;3.42;;;23.80;74.50;;;;;;5093950;28;20031;-71
2023/07/08 03:05:36;;;;;;;4.65;3.33;;;23.80;74.50;;;;;;5094230;28;20020;-72
2023/07/08 03:08:02;;;;;;;7.07;3.88;;;23.80;74.70;;;;;;5094085;28;20521;-72
2023/07/08 03:10:27;;;;;;;6.13;3.85;;;23.70;74.70;;;;;;5094105;28;20462;-71
2023/07/08 03:12:53;;;;;;;4.72;3.83;;;23.70;74.40;;;;;;5093833;28;20032;-71
2023/07/08 03:15:19;;;;;;;6.80;3.92;;;23.70;74.40;;;;;;5092714;28;20101;-72
2023/07/08 03:17:45;;;;;;;6.82;3.33;;;23.70;74.00;;;;;;5093494;28;20074;-71
2023/07/08 03:20:11;;;;;;;8.13;3.88;;;23.70;73.70;;;;;;5093843;28;20053;-71
2023/07/08 03:22:37;;;;;;;5.90;3.88;;;23.70;73.60;;;;;;5093631;28;20024;-71
2023/07/08 03:25:02;;;;;;;7.53;3.65;;;23.60;73.60;;;;;;5093743;28;20109;-71
2023/07/08 03:27:28;;;;;;;9.55;4.20;;;23.70;73.80;;;;;;5093540;28;20063;-71
2023/07/08 03:29:54;;;;;;;7.45;4.40;;;23.60;73.80;;;;;;5092597;28;20031;-72
2023/07/08 03:32:19;;;;;;;5.80;3.50;;;23.60;74.00;;;;;;5093373;28;20028;-72
2023/07/08 03:34:45;;;;;;;7.47;4.20;;;23.50;74.20;;;;;;5093586;28;20042;-72
2023/07/08 03:37:10;;;;;;;6.97;3.72;;;23.50;74.40;;;;;;5093517;28;20032;-72
2023/07/08 03:39:36;;;;;;;5.03;3.80;;;23.50;74.80;;;;;;5093667;28;20107;-72
2023/07/08 03:42:03;;;;;;;6.53;3.95;;;23.50;74.60;;;;;;5093394;28;20095;-72
2023/07/08 03:44:29;;;;;;;5.82;3.55;;;23.40;74.60;;;;;;5093641;28;20035;-72
2023/07/08 03:46:54;;;;;;;6.47;4.25;;;23.50;74.60;;;;;;5093212;28;20016;-71
2023/07/08 03:49:23;;;;;;;7.50;3.95;;;23.40;74.90;;;;;;5093360;28;20032;-71
2023/07/08 03:51:50;;;;;;;8.40;4.07;;;23.40;74.80;;;;;;5093212;28;20062;-71
2023/07/08 03:54:18;;;;;;;7.20;3.72;;;23.50;74.90;;;;;;5093399;28;20497;-71
2023/07/08 03:56:44;;;;;;;4.93;4.25;;;23.40;74.90;;;;;;5093376;28;20051;-71
2023/07/08 03:59:09;;;;;;;9.88;4.30;;;23.40;75.80;;;;;;5093253;28;20032;-71
2023/07/08 04:01:35;;;;;;;5.72;4.32;;;23.40;75.20;;;;;;5093071;28;20016;-71
2023/07/08 04:04:01;;;;;;;3.92;3.45;;;23.40;75.30;;;;;;5093052;28;20077;-71
2023/07/08 04:06:31;;;;;;;7.65;4.50;;;23.30;75.40;;;;;;5093346;28;20020;-71
2023/07/08 04:08:56;;;;;;;7.68;3.88;;;23.30;75.40;;;;;;5093263;28;20077;-71
2023/07/08 04:11:23;;;;;;;4.63;3.92;;;23.30;75.60;;;;;;5093188;28;20024;-71
2023/07/08 04:13:50;;;;;;;6.57;4.40;;;23.30;75.50;;;;;;5093172;28;20039;-71
2023/07/08 04:16:29;;;;;;;6.28;3.97;;;23.30;75.80;;;;;;5092931;28;20590;-71
2023/07/08 04:18:55;;;;;;;5.25;3.47;;;23.30;75.90;;;;;;5093059;28;20099;-71
2023/07/08 04:21:22;;;;;;;5.35;3.67;;;23.30;76.10;;;;;;5093096;28;20031;-71
2023/07/08 04:23:48;;;;;;;7.55;4.78;;;23.20;76.10;;;;;;5093018;28;20028;-71
2023/07/08 04:26:13;;;;;;;5.80;4.03;;;23.20;76.20;;;;;;5093197;28;20119;-71
2023/07/08 04:28:39;;;;;;;5.88;3.88;;;23.20;76.30;;;;;;5092811;28;20028;-71
2023/07/08 04:31:04;;;;;;;4.38;3.50;;;23.20;76.30;;;;;;5092884;28;20095;-71
2023/07/08 04:33:30;;;;;;;8.50;4.10;;;23.20;76.30;;;;;;5092928;28;20489;-71
2023/07/08 04:35:56;;;;;;;7.35;3.75;;;23.20;76.40;;;;;;5093000;28;20108;-71
2023/07/08 04:38:24;;;;;;;7.50;3.83;;;23.20;76.50;;;;;;5092735;28;20103;-71
2023/07/08 04:40:51;;;;;;;5.68;4.10;;;23.20;76.50;;;;;;5092961;28;20025;-71
2023/07/08 04:43:17;;;;;;;5.93;3.47;;;23.10;76.50;;;;;;5093023;28;20073;-71
2023/07/08 04:45:45;;;;;;;5.60;4.13;;;23.10;76.70;;;;;;5092604;28;20024;-71
2023/07/08 04:48:13;;;;;;;4.85;3.58;;;23.20;76.80;;;;;;5092918;28;20024;-71
2023/07/08 04:50:43;;;;;;;5.88;3.67;;;23.20;77.30;;;;;;5092819;28;20017;-71
2023/07/08 04:53:10;;;;;;;8.07;3.75;;;23.10;76.90;;;;;;5092658;28;20028;-71
2023/07/08 04:55:42;;;;;;;5.50;4.15;;;23.10;76.90;;;;;;5092730;28;20039;-71
2023/07/08 04:58:07;;;;;;;7.55;4.22;;;23.10;77.10;;;;;;5092877;28;20016;-71
2023/07/08 05:00:33;;;;;;;4.53;3.70;;;23.10;77.10;;;;;;5092045;28;20146;-71
2023/07/08 05:02:59;;;;;;;5.47;4.20;;;23.10;77.30;;;;;;5092535;28;20024;-71
2023/07/08 05:05:25;;;;;;;8.95;4.20;;;23.10;77.50;;;;;;5092516;28;20024;-71
2023/07/08 05:07:51;;;;;;;6.63;4.03;;;23.10;77.30;;;;;;5092846;28;20047;-71
2023/07/08 05:10:17;;;;;;;6.97;3.97;;;23.10;77.30;;;;;;5092591;28;20133;-71
2023/07/08 05:12:44;;;;;;;6.55;4.28;;;23.00;77.30;;;;;;5092414;28;20024;-71
2023/07/08 05:15:10;;;;;;;5.72;3.95;;;23.10;77.40;;;;;;5092478;28;20024;-71
2023/07/08 05:17:38;;;;;;;5.20;4.47;;;23.10;77.40;;;;;;5095266;28;20024;-71
2023/07/08 05:20:05;;;;;;;6.13;4.50;;;23.00;77.40;;;;;;5096083;28;20102;-71
2023/07/08 05:22:31;;;;;;;5.22;4.60;;;23.00;77.50;;;;;;5096247;28;20031;-71
2023/07/08 05:24:57;;;;;;;7.85;4.70;;;23.00;77.50;;;;;;5095918;28;20024;-71
2023/07/08 05:27:23;;;;;;;5.82;4.78;;;23.10;77.80;;;;;;5095773;28;20024;-71
2023/07/08 05:29:49;;;;;;;5.43;4.13;;;23.10;77.80;;;;;;5095894;28;20035;-71
2023/07/08 05:32:15;;;;;;;11.90;5.07;;;23.00;77.80;;;;;;5096099;28;20028;-71
2023/07/08 05:34:41;;;;;;;7.28;4.18;;;23.00;77.90;;;;;;5095698;28;20051;-71
2023/07/08 05:37:07;;;;;;;7.65;4.68;;;23.00;78.10;;;;;;5095792;28;20020;-72
2023/07/08 05:39:33;;;;;;;8.13;5.05;;;23.00;78.20;;;;;;5095763;28;20020;-71
2023/07/08 05:41:58;;;;;;;5.82;4.70;;;23.00;78.40;;;;;;5095605;28;20027;-71
2023/07/08 05:44:24;;;;;;;8.25;4.72;;;23.00;78.60;;;;;;5095752;28;20028;-71
2023/07/08 05:46:50;;;;;;;6.13;4.72;;;23.00;78.80;;;;;;5095368;28;20012;-71
2023/07/08 05:49:16;;;;;;;9.23;4.82;;;23.10;79.10;;;;;;5095802;28;20028;-72
2023/07/08 05:51:44;;;;;;;5.78;3.97;;;23.10;79.00;;;;;;5095466;28;20024;-71
2023/07/08 05:54:09;;;;;;;6.57;4.40;;;23.10;78.90;;;;;;5095666;28;20428;-72
2023/07/08 05:56:35;;;;;;;7.47;4.50;;;23.20;79.80;;;;;;5095017;28;20538;-72
2023/07/08 05:59:01;;;;;;;8.82;5.15;;;23.20;79.30;;;;;;5095609;28;20384;-71
2023/07/08 06:01:26;;;;;;;7.72;4.20;;;23.30;79.30;;;;;;5095271;28;20035;-71
2023/07/08 06:03:52;;;;;;;5.28;4.38;;;23.30;79.40;;;;;;5095441;28;20042;-71
2023/07/08 06:06:18;;;;;;;7.50;4.00;;;23.40;79.70;;;;;;5095434;28;20067;-71
2023/07/08 06:08:43;;;;;;;5.22;4.35;;;23.40;79.60;;;;;;5095173;28;20350;-71
2023/07/08 06:11:09;;;;;;;4.88;3.92;;;23.40;79.60;;;;;;5094753;28;20024;-71
2023/07/08 06:13:34;;;;;;;5.07;3.55;;;23.50;79.60;;;;;;5095051;28;20039;-71
2023/07/08 06:16:00;;;;;;;6.45;4.60;;;23.50;79.60;;;;;;5095015;28;20581;-71
2023/07/08 06:18:25;;;;;;;8.63;4.50;;;23.60;79.80;;;;;;5095158;28;20442;-71
2023/07/08 06:20:56;;;;;;;4.93;3.58;;;23.70;79.40;;;;;;5094551;28;20020;-71
2023/07/08 06:23:22;;;;;;;6.85;4.22;;;23.70;79.80;;;;;;5095116;28;20028;-72
2023/07/08 06:25:48;;;;;;;6.80;3.90;;;23.70;80.00;;;;;;5094608;28;20145;-72
2023/07/08 06:28:13;;;;;;;6.95;4.05;;;23.80;80.00;;;;;;5094879;28;20468;-71
2023/07/08 06:30:39;;;;;;;5.40;4.50;;;23.80;80.00;;;;;;5094536;28;20028;-71
2023/07/08 06:33:05;;;;;;;8.65;4.95;;;23.90;79.80;;;;;;5094664;28;20024;-71
2023/07/08 06:35:30;;;;;;;8.65;4.55;;;24.00;80.00;;;;;;5093334;28;20031;-71
2023/07/08 06:37:56;;;;;;;7.32;4.43;;;24.00;79.70;;;;;;5094632;28;20013;-71
2023/07/08 06:40:21;;;;;;;7.25;4.07;;;24.10;79.90;;;;;;5094437;28;20488;-71
2023/07/08 06:42:47;;;;;;;8.55;3.83;;;24.10;80.20;;;;;;5094366;28;20434;-71
2023/07/08 06:45:13;;;;;;;10.45;4.15;;;24.10;80.10;;;;;;5094512;28;20520;-71
2023/07/08 06:47:38;;;;;;;11.07;4.47;;;24.20;80.20;;;;;;5094288;28;20044;-71
2023/07/08 06:50:05;;;;;;;4.65;3.00;;;24.20;80.00;;;;;;5094721;28;20031;-71
2023/07/08 06:52:34;;;;;;;3.00;2.40;;;24.20;79.60;;;;;;5093987;28;20104;-71
2023/07/08 06:55:00;;;;;;;6.38;3.53;;;24.20;78.80;;;;;;5094180;28;20059;-71
2023/07/08 06:57:26;;;;;;;6.65;3.22;;;24.20;80.00;;;;;;5094230;28;20076;-72
2023/07/08 06:59:52;;;;;;;3.55;2.67;;;24.30;80.60;;;;;;5094153;28;20020;-72
2023/07/08 07:02:17;;;;;;;4.05;2.78;;;24.30;79.00;;;;;;5094117;28;20023;-71
2023/07/08 07:04:43;;;;;;;4.10;3.47;;;24.30;79.60;;;;;;5093989;28;20028;-71
2023/07/08 07:07:09;;;;;;;6.07;3.25;;;24.30;79.80;;;;;;5094085;28;20433;-71
2023/07/08 07:09:35;;;;;;;7.97;3.90;;;24.40;80.10;;;;;;5093924;28;20036;-71
2023/07/08 07:12:01;;;;;;;5.47;3.45;;;24.40;80.40;;;;;;5094000;28;20111;-71
2023/07/08 07:14:27;;;;;;;6.82;4.00;;;24.50;80.20;;;;;;5093982;28;20039;-71
2023/07/08 07:16:52;;;;;;;6.30;3.97;;;24.50;80.40;;;;;;5093823;28;20032;-71
2023/07/08 07:19:18;;;;;;;4.45;3.33;;;24.60;80.50;;;;;;5093863;28;20057;-71
2023/07/08 07:21:43;;;;;;;8.45;3.60;;;24.60;79.60;;;;;;5093809;28;20027;-71
2023/07/08 07:24:09;;;;;;;4.72;3.85;;;24.60;79.80;;;;;;5093548;28;20085;-71
2023/07/08 07:26:36;;;;;;;6.97;3.13;;;24.70;79.90;;;;;;5093674;28;20020;-71
2023/07/08 07:29:02;;;;;;;4.97;3.00;;;24.80;79.80;;;;;;5093618;28;20059;-71
2023/07/08 07:31:28;;;;;;;4.82;3.22;;;24.80;79.40;;;;;;5093726;28;20020;-71
2023/07/08 07:33:53;;;;;;;5.43;3.83;;;24.80;79.80;;;;;;5093580;28;20084;-71
2023/07/08 07:36:19;;;;;;;3.70;3.03;;;24.90;80.40;;;;;;5093687;28;20348;-71
2023/07/08 07:38:45;;;;;;;4.53;3.00;;;24.90;79.40;;;;;;5092643;28;20363;-71
2023/07/08 07:41:12;;;;;;;3.65;2.13;;;24.90;78.80;;;;;;5093625;28;20024;-71
2023/07/08 07:43:38;;;;;;;2.50;2.30;;;24.90;78.00;;;;;;5093321;28;20476;-71
2023/07/08 07:46:05;;;;;;;4.22;2.38;;;24.90;78.10;;;;;;5093696;28;20023;-71
2023/07/08 07:48:31;;;;;;;2.55;2.10;;;24.90;77.90;;;;;;5093373;28;20032;-71
2023/07/08 07:50:56;;;;;;;2.88;2.10;;;24.90;77.60;;;;;;5093139;28;20103;-71
2023/07/08 07:53:22;;;;;;;3.58;2.13;;;24.90;77.50;;;;;;5093007;28;20123;-71
2023/07/08 07:55:48;;;;;;;3.10;2.75;;;24.90;77.50;;;;;;5093446;28;20020;-71
2023/07/08 07:58:13;;;;;;;3.50;2.47;;;25.00;78.10;;;;;;5092021;28;20468;-71
2023/07/08 08:00:39;;;;;;;2.95;2.25;;;25.00;77.90;;;;;;5093209;28;20016;-71
2023/07/08 08:03:05;;;;;;;3.38;2.63;;;25.10;77.60;;;;;;5092017;28;20020;-71
2023/07/08 08:05:30;;;;;;;3.58;2.53;;;25.10;77.40;;;;;;5093359;28;20028;-71
2023/07/08 08:07:56;;;;;;;6.28;2.22;;;25.10;77.70;;;;;;5092993;28;20035;-71
2023/07/08 08:10:22;;;;;;;3.67;2.50;;;25.10;77.30;;;;;;5093175;28;20465;-71
2023/07/08 08:12:50;;;;;;;2.80;2.13;;;25.10;76.90;;;;;;5092929;28;20464;-71
2023/07/08 08:15:16;;;;;;;4.97;2.00;;;25.10;76.80;;;;;;5093227;28;20028;-71
2023/07/08 08:17:47;;;;;;;2.15;1.95;;;25.20;77.00;;;;;;5093166;28;20473;-71
2023/07/08 08:20:12;;;;;;;2.90;2.25;;;25.20;77.30;;;;;;5093097;28;20373;-71
2023/07/08 08:22:38;;;;;;;2.78;2.25;;;25.20;76.50;;;;;;5092786;28;20024;-71
2023/07/08 08:25:04;;;;;;;4.90;3.20;;;25.20;76.70;;;;;;5093040;28;20056;-71
2023/07/08 08:27:29;;;;;;;4.90;3.22;;;25.30;77.60;;;;;;5091710;28;20081;-71
2023/07/08 08:29:55;;;;;;;3.35;2.35;;;25.40;77.40;;;;;;5092977;28;20438;-71
2023/07/08 08:32:20;;;;;;;3.53;2.00;;;25.40;76.60;;;;;;5093147;28;20032;-71
2023/07/08 08:34:46;;;;;;;2.17;1.98;;;25.40;76.30;;;;;;5092899;28;20028;-71
2023/07/08 08:37:12;;;;;;;3.47;2.45;;;25.40;76.40;;;;;;5092701;28;20023;-71
2023/07/08 08:39:37;;;;;;;2.50;2.13;;;25.40;76.40;;;;;;5092894;28;20024;-71
2023/07/08 08:42:03;;;;;;;2.42;1.95;;;25.40;76.20;;;;;;5093030;28;20111;-71
2023/07/08 08:44:34;;;;;;;1.98;1.83;;;25.50;76.00;;;;;;5092893;28;20020;-71
2023/07/08 08:47:35;;;;;;;2.05;1.83;;;25.50;76.00;;;;;;5091644;28;20081;-71
2023/07/08 08:50:11;;;;;;;1.88;1.75;;;25.50;75.80;;;;;;5092647;28;20052;-71
2023/07/08 08:52:40;;;;;;;2.60;1.75;;;25.50;76.00;;;;;;5095271;28;20035;-71
2023/07/08 08:55:13;;;;;;;2.28;2.00;;;25.50;75.70;;;;;;5096566;28;20039;-71
2023/07/08 08:57:46;;;;;;;2.22;1.77;;;25.60;75.60;;;;;;5096613;28;20105;-71
2023/07/08 09:00:18;;;;;;;2.10;1.88;;;25.60;75.40;;;;;;5096592;28;20500;-71
2023/07/08 09:03:09;;;;;;;2.20;2.00;;;25.60;75.40;;;;;;5096606;28;20051;-71
2023/07/08 09:05:35;;;;;;;2.38;1.98;;;25.60;75.50;;;;;;5096277;28;20027;-71
2023/07/08 09:08:08;;;;;;;2.95;1.80;;;25.70;75.20;;;;;;5096531;28;20028;-71
2023/07/08 09:10:39;;;;;;;2.15;1.60;;;25.70;75.50;;;;;;5096213;28;20020;-71
2023/07/08 09:13:10;;;;;;;2.72;1.95;;;25.70;75.40;;;;;;5094972;28;20469;-71
2023/07/08 09:15:37;;;;;;;2.10;1.80;;;25.70;75.30;;;;;;5096269;28;20009;-71
2023/07/08 09:18:27;;;;;;;2.50;1.90;;;25.80;75.30;;;;;;5096192;28;20024;-71
2023/07/08 09:20:55;;;;;;;2.38;2.17;;;25.80;75.20;;;;;;5095653;28;20020;-71
2023/07/08 09:23:28;;;;;;;2.03;1.75;;;25.80;75.20;;;;;;5096275;28;20052;-71
2023/07/08 09:26:03;;;;;;;5.03;2.90;;;25.80;75.20;;;;;;5095693;28;20480;-72
2023/07/08 09:28:37;;;;;;;2.50;2.13;;;25.90;75.90;;;;;;5096222;28;20056;-71
2023/07/08 09:31:06;;;;;;;2.67;2.10;;;25.90;74.90;;;;;;5096047;28;20024;-71
2023/07/08 09:33:37;;;;;;;2.40;1.83;;;25.90;74.80;;;;;;5094992;28;20477;-71
2023/07/08 09:36:17;;;;;;;2.50;2.03;;;25.90;74.80;;;;;;5095396;28;20023;-71
2023/07/08 09:38:44;;;;;;;3.38;1.85;;;26.00;75.10;;;;;;5095896;28;20024;-71
2023/07/08 09:41:09;;;;;;;3.88;2.63;;;26.00;75.30;;;;;;5095895;28;20419;-71
2023/07/08 09:43:38;;;;;;;3.95;3.10;;;26.00;75.40;;;;;;5095846;28;20469;-71
2023/07/08 09:46:05;;;;;;;2.15;1.88;;;26.00;75.10;;;;;;5095415;28;20080;-71
2023/07/08 09:48:36;;;;;;;3.30;2.55;;;26.00;74.60;;;;;;5095384;28;20031;-71
2023/07/08 09:51:02;;;;;;;2.30;2.10;;;26.10;74.90;;;;;;5095222;28;20020;-71
2023/07/08 09:53:28;;;;;;;2.42;1.95;;;26.10;74.70;;;;;;5095446;28;20392;-72
2023/07/08 09:55:58;;;;;;;2.38;2.05;;;26.10;74.80;;;;;;5095352;28;20490;-71
2023/07/08 09:58:31;;;;;;;2.42;1.92;;;26.10;74.50;;;;;;5095604;28;20043;-71
2023/07/08 10:01:08;;;;;;;3.15;2.00;;;26.20;74.20;;;;;;5095325;28;20028;-71
2023/07/08 10:03:36;;;;;;;2.33;1.83;;;26.20;74.20;;;;;;5094696;28;20020;-71
2023/07/08 10:06:17;;;;;;;2.28;1.77;;;26.20;74.10;;;;;;5095153;28;20106;-71
2023/07/08 10:08:44;;;;;;;2.25;1.80;;;26.10;74.40;;;;;;5095269;28;20020;-71
2023/07/08 10:11:12;;;;;;;2.65;2.20;;;26.20;74.60;;;;;;5095077;28;20024;-71
2023/07/08 10:13:45;;;;;;;2.55;1.80;;;26.20;74.80;;;;;;5095089;28;20024;-72
2023/07/08 10:16:28;;;;;;;3.15;2.17;;;26.10;74.30;;;;;;5095008;28;20051;-72
2023/07/08 10:18:53;;;;;;;2.40;2.20;;;26.20;74.40;;;;;;5094573;28;20027;-71
2023/07/08 10:21:25;;;;;;;2.92;2.03;;;26.20;74.40;;;;;;5094885;28;20028;-72
2023/07/08 10:23:58;;;;;;;2.65;1.90;;;26.20;74.60;;;;;;5095061;28;20036;-71
2023/07/08 10:26:32;;;;;;;2.00;1.83;;;26.30;74.50;;;;;;5094768;28;20024;-71
2023/07/08 10:29:23;;;;;;;2.80;2.58;;;26.30;74.40;;;;;;5094829;28;20532;-72
2023/07/08 10:32:18;;;;;;;2.47;2.08;;;26.30;74.30;;;;;;5094697;28;20028;-71
2023/07/08 10:34:52;;;;;;;3.58;2.20;;;26.30;73.90;;;;;;5094777;28;20040;-71
2023/07/08 10:37:33;;;;;;;2.58;2.17;;;26.30;74.20;;;;;;5094641;28;20020;-71
2023/07/08 10:40:17;;;;;;;2.97;1.92;;;26.40;74.00;;;;;;5094696;28;20102;-71
2023/07/08 10:43:12;;;;;;;3.70;2.35;;;26.50;73.80;;;;;;5094577;28;20028;-71
2023/07/08 10:46:06;;;;;;;3.90;2.13;;;26.50;74.00;;;;;;5057018;28;20033;-72
2023/07/08 10:49:15;;;;;;;3.85;2.38;;;26.40;73.60;;;;;;5094344;28;20077;-72
2023/07/08 10:52:12;;;;;;;3.45;2.28;;;26.50;74.20;;;;;;5094274;28;20024;-71
2023/07/08 10:54:56;;;;;;;2.05;1.67;;;26.50;73.70;;;;;;5087251;28;20047;-71
2023/07/08 10:57:50;;;;;;;4.38;2.67;;;26.50;74.00;;;;;;5094221;28;20024;-71
2023/07/08 11:00:18;;;;;;;5.35;3.72;;;26.60;74.20;;;;;;5094391;28;20050;-72
2023/07/08 11:03:12;;;;;;;2.80;2.17;;;26.70;73.20;;;;;;5093716;28;20051;-71
2023/07/08 11:05:40;;;;;;;3.50;2.10;;;26.70;73.40;;;;;;5092934;28;20492;-71
2023/07/08 11:08:18;;;;;;;4.78;3.35;;;26.60;73.60;;;;;;5092721;28;20107;-71
2023/07/08 11:10:52;;;;;;;4.32;3.20;;;26.80;73.80;;;;;;5094161;28;20480;-71
2023/07/08 11:13:21;;;;;;;2.50;2.03;;;26.80;73.80;;;;;;5093539;28;20401;-72
2023/07/08 11:15:54;;;;;;;2.67;2.00;;;26.80;73.10;;;;;;5093228;28;20086;-71
2023/07/08 11:18:25;;;;;;;1.98;1.77;;;26.80;73.40;;;;;;5093903;28;20433;-72
2023/07/08 11:20:59;;;;;;;2.30;1.88;;;26.80;73.30;;;;;;5093806;28;20039;-71
2023/07/08 11:23:49;;;;;;;2.00;1.70;;;26.80;73.40;;;;;;5093805;28;20024;-71
2023/07/08 11:26:33;;;;;;;3.05;2.17;;;26.80;73.30;;;;;;5093721;28;20020;-71
2023/07/08 11:29:00;;;;;;;3.08;2.42;;;26.80;73.40;;;;;;5093723;28;20020;-71
2023/07/08 11:31:29;;;;;;;2.30;2.00;;;26.80;73.30;;;;;;5093584;28;20031;-71
2023/07/08 11:33:56;;;;;;;2.15;1.88;;;26.80;72.90;;;;;;5093603;28;20040;-71
2023/07/08 11:36:24;;;;;;;2.05;1.85;;;26.80;72.90;;;;;;5093769;28;20020;-71
2023/07/08 11:38:53;;;;;;;2.47;2.10;;;26.80;72.90;;;;;;5093602;28;20093;-71
2023/07/08 11:41:25;;;;;;;1.90;1.63;;;26.70;73.10;;;;;;5093620;28;20021;-71
2023/07/08 11:43:53;;;;;;;3.55;2.50;;;26.80;73.10;;;;;;5093517;28;20473;-71
2023/07/08 11:46:25;;;;;;;1.70;1.40;;;26.80;73.10;;;;;;5093348;28;20020;-71
2023/07/08 11:48:52;;;;;;;2.50;1.50;;;26.80;72.70;;;;;;5093462;28;20024;-71
2023/07/08 11:51:31;;;;;;;2.10;1.90;;;26.80;73.10;;;;;;5092060;28;20027;-72
2023/07/08 11:54:20;;;;;;;4.07;2.58;;;26.80;73.40;;;;;;5093327;28;20040;-71
2023/07/08 11:57:04;;;;;;;3.15;2.60;;;26.80;73.20;;;;;;5093362;28;20020;-71
2023/07/08 11:59:37;;;;;;;2.88;2.53;;;26.80;72.80;;;;;;5093074;28;20030;-71
2023/07/08 12:02:19;;;;;;;1.60;1.50;;;26.80;73.10;;;;;;5093072;28;20362;-71
2023/07/08 12:05:02;;;;;;;2.60;2.13;;;26.80;73.00;;;;;;5093204;28;20024;-71
2023/07/08 12:07:40;;;;;;;;;;;26.80;73.10;;;;;;5092499;28;20050;-71
2023/07/08 12:10:25;;;;;;;1.67;1.52;;;26.80;73.30;;;;;;5091807;28;20323;-71
2023/07/08 12:12:50;;;;;;;2.40;1.85;;;26.90;73.30;;;;;;5093124;28;20032;-71
2023/07/08 12:15:22;;;;;;;1.98;1.77;;;26.90;72.90;;;;;;5092744;28;20162;-71
2023/07/08 12:17:49;;;;;;;2.75;1.95;;;26.80;73.10;;;;;;5093324;28;20027;-71
2023/07/08 12:20:22;;;;;;;2.78;1.70;;;26.90;72.70;;;;;;5092925;28;20081;-71
2023/07/08 12:22:48;;;;;;;2.22;1.92;;;26.90;72.70;;;;;;5092854;28;20119;-71
2023/07/08 12:25:16;;;;;;;2.00;1.75;;;27.00;72.50;;;;;;5093654;28;20095;-71
2023/07/08 12:27:45;;;;;;;1.77;1.50;;;26.90;72.70;;;;;;5097158;28;20111;-71
2023/07/08 12:30:11;;;;;;;3.05;1.77;;;27.00;72.80;;;;;;5096968;28;20097;-71
2023/07/08 12:32:37;;;;;;;2.28;1.70;;;26.90;72.90;;;;;;5096982;28;20465;-71
2023/07/08 12:35:05;;;;;;;2.15;1.48;;;26.90;73.20;;;;;;5095653;28;20081;-71
2023/07/08 12:37:31;;;;;;;3.58;2.38;;;26.90;72.80;;;;;;5097177;28;20100;-71
2023/07/08 12:40:04;;;;;;;2.03;1.80;;;26.90;72.90;;;;;;5097040;28;20091;-71
2023/07/08 12:42:30;;;;;;;2.15;1.60;;;26.90;72.90;;;;;;5096777;28;20024;-71
2023/07/08 12:44:56;;;;;;;1.90;1.55;;;26.90;72.70;;;;;;5096685;28;20428;-71
2023/07/08 12:47:22;;;;;;;2.08;1.58;;;27.00;72.60;;;;;;5096944;28;20024;-71
2023/07/08 12:49:48;;;;;;;2.05;1.70;;;26.90;72.80;;;;;;5096703;28;20136;-71
2023/07/08 12:52:22;;;;;;;2.40;2.20;;;27.00;72.80;;;;;;5096668;28;20031;-71
2023/07/08 12:54:48;;;;;;;1.60;1.48;;;27.00;73.20;;;;;;5096495;28;20036;-71
2023/07/08 12:57:16;;;;;;;1.85;1.58;;;27.00;73.00;;;;;;5096414;28;20023;-70